sensor_id;sensor_type;location;lat;lon;timestamp;pressure;altitude;pressure_sealevel;temperature;humidity
39243;BME280;29823;47.404;8.566;2023-02-04T00:00:28;97945.56;;;6.23;100.00
39243;BME280;29823;47.404;8.566;2023-02-04T00:02:56;97932.94;;;6.25;100.00
39243;BME280;29823;47.404;8.566;2023-02-04T00:05:24;97944.25;;;6.11;100.00
39243;BME280;29823;47.404;8.566;2023-02-04T00:07:52;97945.47;;;5.93;100.00
39243;BME280;29823;47.404;8.566;2023-02-04T00:10:20;97944.63;;;5.92;100.00
39243;BME280;29823;47.404;8.566;2023-02-04T00:12:48;97945.25;;;5.94;100.00
39243;BME280;29823;47.404;8.566;2023-02-04T00:15:16;97939.63;;;5.97;100.00
39243;BME280;29823;47.404;8.566;2023-02-04T00:17:45;97941.13;;;6.00;100.00
39243;BME280;29823;47.404;8.566;2023-02-04T00:20:13;97944.59;;;6.00;100.00
39243;BME280;29823;47.404;8.566;2023-02-04T00:22:40;97930.50;;;6.00;100.00
39243;BME280;29823;47.404;8.566;2023-02-04T00:25:08;97964.16;;;6.15;100.00
39243;BME280;29823;47.404;8.566;2023-02-04T00:27:36;97954.56;;;5.98;100.00
39243;BME280;29823;47.404;8.566;2023-02-04T00:30:06;97948.91;;;5.77;100.00
39243;BME280;29823;47.404;8.566;2023-02-04T00:32:34;97925.69;;;5.71;100.00
39243;BME280;29823;47.404;8.566;2023-02-04T00:35:04;97940.47;;;5.82;100.00
39243;BME280;29823;47.404;8.566;2023-02-04T00:37:32;97953.75;;;5.90;100.00
39243;BME280;29823;47.404;8.566;2023-02-04T00:40:00;97953.56;;;5.83;100.00
39243;BME280;29823;47.404;8.566;2023-02-04T00:42:27;97957.22;;;5.82;100.00
39243;BME280;29823;47.404;8.566;2023-02-04T00:44:55;97954.56;;;5.82;100.00
39243;BME280;29823;47.404;8.566;2023-02-04T00:47:23;97937.50;;;5.85;100.00
39243;BME280;29823;47.404;8.566;2023-02-04T00:49:51;97939.28;;;5.76;100.00
39243;BME280;29823;47.404;8.566;2023-02-04T00:52:20;97924.22;;;5.77;100.00
39243;BME280;29823;47.404;8.566;2023-02-04T00:54:48;97941.63;;;5.79;100.00
39243;BME280;29823;47.404;8.566;2023-02-04T00:57:16;97935.34;;;5.80;100.00
39243;BME280;29823;47.404;8.566;2023-02-04T00:59:45;97937.16;;;5.80;100.00
39243;BME280;29823;47.404;8.566;2023-02-04T01:02:13;97932.16;;;5.61;100.00
39243;BME280;29823;47.404;8.566;2023-02-04T01:04:43;97942.25;;;5.57;100.00
39243;BME280;29823;47.404;8.566;2023-02-04T01:07:11;97947.41;;;5.59;100.00
39243;BME280;29823;47.404;8.566;2023-02-04T01:09:40;97929.00;;;5.57;100.00
39243;BME280;29823;47.404;8.566;2023-02-04T01:12:08;97949.38;;;5.65;100.00
39243;BME280;29823;47.404;8.566;2023-02-04T01:14:36;97947.75;;;5.56;100.00
39243;BME280;29823;47.404;8.566;2023-02-04T01:17:04;97948.56;;;5.48;100.00
39243;BME280;29823;47.404;8.566;2023-02-04T01:19:32;97942.25;;;5.57;100.00
39243;BME280;29823;47.404;8.566;2023-02-04T01:21:59;97945.91;;;5.56;100.00
39243;BME280;29823;47.404;8.566;2023-02-04T01:24:27;97955.84;;;5.62;100.00
39243;BME280;29823;47.404;8.566;2023-02-04T01:26:58;97969.81;;;5.64;100.00
39243;BME280;29823;47.404;8.566;2023-02-04T01:29:26;97976.59;;;5.51;100.00
39243;BME280;29823;47.404;8.566;2023-02-04T01:31:53;97961.84;;;5.48;100.00
39243;BME280;29823;47.404;8.566;2023-02-04T01:34:22;97967.81;;;5.58;100.00
39243;BME280;29823;47.404;8.566;2023-02-04T01:36:51;97955.22;;;5.52;100.00
39243;BME280;29823;47.404;8.566;2023-02-04T01:39:19;97968.78;;;5.57;100.00
39243;BME280;29823;47.404;8.566;2023-02-04T01:41:47;97958.84;;;5.59;100.00
39243;BME280;29823;47.404;8.566;2023-02-04T01:44:16;97968.78;;;5.73;100.00
39243;BME280;29823;47.404;8.566;2023-02-04T01:46:44;97951.72;;;5.60;100.00
39243;BME280;29823;47.404;8.566;2023-02-04T01:49:12;97960.50;;;5.68;100.00
39243;BME280;29823;47.404;8.566;2023-02-04T01:51:40;97966.47;;;5.78;100.00
39243;BME280;29823;47.404;8.566;2023-02-04T01:54:09;97963.50;;;5.73;100.00
39243;BME280;29823;47.404;8.566;2023-02-04T01:56:39;97953.22;;;5.70;100.00
39243;BME280;29823;47.404;8.566;2023-02-04T01:59:10;97944.75;;;5.75;100.00
39243;BME280;29823;47.404;8.566;2023-02-04T02:01:41;97942.13;;;5.67;100.00
39243;BME280;29823;47.404;8.566;2023-02-04T02:04:12;97931.50;;;5.67;100.00
39243;BME280;29823;47.404;8.566;2023-02-04T02:06:42;97948.56;;;5.72;100.00
39243;BME280;29823;47.404;8.566;2023-02-04T02:09:11;97938.94;;;5.71;100.00
39243;BME280;29823;47.404;8.566;2023-02-04T02:11:39;97940.13;;;5.77;100.00
39243;BME280;29823;47.404;8.566;2023-02-04T02:14:07;97938.13;;;5.79;100.00
39243;BME280;29823;47.404;8.566;2023-02-04T02:16:35;97938.66;;;5.82;100.00
39243;BME280;29823;47.404;8.566;2023-02-04T02:19:06;97919.03;;;5.67;100.00
39243;BME280;29823;47.404;8.566;2023-02-04T02:21:39;97943.97;;;5.90;100.00
39243;BME280;29823;47.404;8.566;2023-02-04T02:24:23;97930.31;;;5.77;100.00
39243;BME280;29823;47.404;8.566;2023-02-04T02:26:51;97929.31;;;5.78;100.00
39243;BME280;29823;47.404;8.566;2023-02-04T02:29:20;97918.69;;;5.78;100.00
39243;BME280;29823;47.404;8.566;2023-02-04T02:31:48;97927.03;;;5.83;100.00
39243;BME280;29823;47.404;8.566;2023-02-04T02:34:17;97924.53;;;5.90;100.00
39243;BME280;29823;47.404;8.566;2023-02-04T02:36:46;97930.03;;;5.80;100.00
39243;BME280;29823;47.404;8.566;2023-02-04T02:39:14;97929.19;;;5.88;100.00
39243;BME280;29823;47.404;8.566;2023-02-04T02:41:43;97924.22;;;5.85;100.00
39243;BME280;29823;47.404;8.566;2023-02-04T02:44:11;97929.84;;;5.90;100.00
39243;BME280;29823;47.404;8.566;2023-02-04T02:46:40;97934.50;;;5.96;100.00
39243;BME280;29823;47.404;8.566;2023-02-04T02:49:11;97938.78;;;5.97;100.00
39243;BME280;29823;47.404;8.566;2023-02-04T02:51:41;97936.31;;;6.03;100.00
39243;BME280;29823;47.404;8.566;2023-02-04T02:54:18;97919.56;;;5.95;100.00
39243;BME280;29823;47.404;8.566;2023-02-04T02:56:49;97894.50;;;5.73;100.00
39243;BME280;29823;47.404;8.566;2023-02-04T02:59:17;97911.75;;;5.93;100.00
39243;BME280;29823;47.404;8.566;2023-02-04T03:01:47;97901.31;;;6.00;100.00
39243;BME280;29823;47.404;8.566;2023-02-04T03:04:18;97890.19;;;5.88;100.00
39243;BME280;29823;47.404;8.566;2023-02-04T03:06:47;97895.31;;;5.98;100.00
39243;BME280;29823;47.404;8.566;2023-02-04T03:09:15;97910.41;;;6.13;100.00
39243;BME280;29823;47.404;8.566;2023-02-04T03:11:43;97914.75;;;6.06;100.00
39243;BME280;29823;47.404;8.566;2023-02-04T03:14:12;97930.84;;;6.05;100.00
39243;BME280;29823;47.404;8.566;2023-02-04T03:16:40;97927.03;;;5.91;100.00
39243;BME280;29823;47.404;8.566;2023-02-04T03:19:10;97940.28;;;5.99;100.00
39243;BME280;29823;47.404;8.566;2023-02-04T03:21:38;97935.13;;;5.98;100.00
39243;BME280;29823;47.404;8.566;2023-02-04T03:24:07;97920.72;;;5.92;100.00
39243;BME280;29823;47.404;8.566;2023-02-04T03:26:35;97928.66;;;6.00;100.00
39243;BME280;29823;47.404;8.566;2023-02-04T03:29:05;97927.50;;;6.03;100.00
39243;BME280;29823;47.404;8.566;2023-02-04T03:31:34;97927.19;;;6.06;100.00
39243;BME280;29823;47.404;8.566;2023-02-04T03:34:03;97928.84;;;5.91;100.00
39243;BME280;29823;47.404;8.566;2023-02-04T03:36:31;97930.84;;;6.05;100.00
39243;BME280;29823;47.404;8.566;2023-02-04T03:38:59;97933.81;;;6.10;100.00
39243;BME280;29823;47.404;8.566;2023-02-04T03:41:27;97941.44;;;6.05;100.00
39243;BME280;29823;47.404;8.566;2023-02-04T03:43:55;97916.41;;;5.83;100.00
39243;BME280;29823;47.404;8.566;2023-02-04T03:46:23;97948.41;;;6.06;100.00
39243;BME280;29823;47.404;8.566;2023-02-04T03:48:52;97952.56;;;6.08;100.00
39243;BME280;29823;47.404;8.566;2023-02-04T03:51:20;97943.63;;;6.01;100.00
39243;BME280;29823;47.404;8.566;2023-02-04T03:53:49;97917.75;;;5.87;100.00
39243;BME280;29823;47.404;8.566;2023-02-04T03:56:16;97947.44;;;5.99;100.00
39243;BME280;29823;47.404;8.566;2023-02-04T03:58:44;97936.63;;;5.76;100.00
39243;BME280;29823;47.404;8.566;2023-02-04T04:01:12;97938.94;;;5.71;100.00
39243;BME280;29823;47.404;8.566;2023-02-04T04:03:40;97948.22;;;5.67;100.00
39243;BME280;29823;47.404;8.566;2023-02-04T04:06:09;97946.25;;;5.69;100.00
39243;BME280;29823;47.404;8.566;2023-02-04T04:08:37;97939.28;;;5.68;100.00
39243;BME280;29823;47.404;8.566;2023-02-04T04:11:06;97930.66;;;5.66;100.00
39243;BME280;29823;47.404;8.566;2023-02-04T04:13:33;97932.66;;;5.64;100.00
39243;BME280;29823;47.404;8.566;2023-02-04T04:16:02;97947.41;;;5.75;100.00
39243;BME280;29823;47.404;8.566;2023-02-04T04:18:31;97937.63;;;5.75;100.00
39243;BME280;29823;47.404;8.566;2023-02-04T04:20:58;97946.91;;;5.71;100.00
39243;BME280;29823;47.404;8.566;2023-02-04T04:23:28;97941.13;;;5.68;100.00
39243;BME280;29823;47.404;8.566;2023-02-04T04:25:55;97936.94;;;5.57;100.00
39243;BME280;29823;47.404;8.566;2023-02-04T04:28:23;97934.31;;;5.65;100.00
39243;BME280;29823;47.404;8.566;2023-02-04T04:30:51;97935.66;;;5.69;100.00
39243;BME280;29823;47.404;8.566;2023-02-04T04:33:19;97939.78;;;5.72;100.00
39243;BME280;29823;47.404;8.566;2023-02-04T04:35:46;97933.16;;;5.68;100.00
39243;BME280;29823;47.404;8.566;2023-02-04T04:38:14;97924.53;;;5.66;100.00
39243;BME280;29823;47.404;8.566;2023-02-04T04:40:43;97933.66;;;5.63;100.00
39243;BME280;29823;47.404;8.566;2023-02-04T04:43:11;97934.28;;;5.57;100.00
39243;BME280;29823;47.404;8.566;2023-02-04T04:45:39;97931.66;;;5.57;100.00
39243;BME280;29823;47.404;8.566;2023-02-04T04:48:07;97936.81;;;5.67;100.00
39243;BME280;29823;47.404;8.566;2023-02-04T04:50:35;97937.94;;;5.72;100.00
39243;BME280;29823;47.404;8.566;2023-02-04T04:53:03;97938.28;;;5.77;100.00
39243;BME280;29823;47.404;8.566;2023-02-04T04:55:32;97937.78;;;5.74;100.00
39243;BME280;29823;47.404;8.566;2023-02-04T04:58:01;97937.28;;;5.78;100.00
39243;BME280;29823;47.404;8.566;2023-02-04T05:00:29;97929.69;;;5.75;100.00
39243;BME280;29823;47.404;8.566;2023-02-04T05:02:57;97936.63;;;5.76;100.00
39243;BME280;29823;47.404;8.566;2023-02-04T05:05:26;97918.72;;;5.54;100.00
39243;BME280;29823;47.404;8.566;2023-02-04T05:07:54;97931.31;;;5.60;100.00
39243;BME280;29823;47.404;8.566;2023-02-04T05:10:23;97918.88;;;5.53;100.00
39243;BME280;29823;47.404;8.566;2023-02-04T05:12:50;97927.50;;;5.63;100.00
39243;BME280;29823;47.404;8.566;2023-02-04T05:15:19;97926.03;;;5.60;100.00
39243;BME280;29823;47.404;8.566;2023-02-04T05:17:47;97932.97;;;5.61;100.00
39243;BME280;29823;47.404;8.566;2023-02-04T05:20:15;97929.00;;;5.65;100.00
39243;BME280;29823;47.404;8.566;2023-02-04T05:22:43;97941.59;;;5.71;100.00
39243;BME280;29823;47.404;8.566;2023-02-04T05:25:11;97944.91;;;5.73;100.00
39243;BME280;29823;47.404;8.566;2023-02-04T05:27:39;97941.75;;;5.70;100.00
39243;BME280;29823;47.404;8.566;2023-02-04T05:30:09;97937.97;;;5.48;100.00
39243;BME280;29823;47.404;8.566;2023-02-04T05:32:38;97948.06;;;5.69;100.00
39243;BME280;29823;47.404;8.566;2023-02-04T05:35:07;97940.78;;;5.63;100.00
39243;BME280;29823;47.404;8.566;2023-02-04T05:37:35;97926.34;;;5.73;100.00
39243;BME280;29823;47.404;8.566;2023-02-04T05:40:03;97932.31;;;5.67;100.00
39243;BME280;29823;47.404;8.566;2023-02-04T05:42:31;97910.44;;;5.49;100.00
39243;BME280;29823;47.404;8.566;2023-02-04T05:44:59;97915.09;;;5.47;100.00
39243;BME280;29823;47.404;8.566;2023-02-04T05:47:27;97936.94;;;5.57;100.00
39243;BME280;29823;47.404;8.566;2023-02-04T05:49:56;97940.78;;;5.47;100.00
39243;BME280;29823;47.404;8.566;2023-02-04T05:52:24;97944.28;;;5.63;100.00
39243;BME280;29823;47.404;8.566;2023-02-04T05:54:52;97944.78;;;5.67;100.00
39243;BME280;29823;47.404;8.566;2023-02-04T05:57:20;97949.25;;;5.74;100.00
39243;BME280;29823;47.404;8.566;2023-02-04T05:59:48;97937.47;;;5.77;100.00
39243;BME280;29823;47.404;8.566;2023-02-04T06:02:15;97949.44;;;5.81;100.00
39243;BME280;29823;47.404;8.566;2023-02-04T06:04:43;97941.63;;;5.79;100.00
39243;BME280;29823;47.404;8.566;2023-02-04T06:07:13;97956.88;;;5.77;100.00
39243;BME280;29823;47.404;8.566;2023-02-04T06:09:40;97955.72;;;5.72;100.00
39243;BME280;29823;47.404;8.566;2023-02-04T06:12:08;97960.19;;;5.79;100.00
39243;BME280;29823;47.404;8.566;2023-02-04T06:14:36;97940.78;;;5.63;100.00
39243;BME280;29823;47.404;8.566;2023-02-04T06:17:04;97957.38;;;5.73;100.00
39243;BME280;29823;47.404;8.566;2023-02-04T06:19:32;97956.06;;;5.77;100.00
39243;BME280;29823;47.404;8.566;2023-02-04T06:22:00;97957.53;;;5.79;100.00
39243;BME280;29823;47.404;8.566;2023-02-04T06:24:29;97962.22;;;5.85;100.00
39243;BME280;29823;47.404;8.566;2023-02-04T06:26:57;97932.16;;;5.61;100.00
39243;BME280;29823;47.404;8.566;2023-02-04T06:29:25;97967.50;;;5.69;100.00
39243;BME280;29823;47.404;8.566;2023-02-04T06:31:52;97974.09;;;5.73;100.00
39243;BME280;29823;47.404;8.566;2023-02-04T06:34:20;97954.03;;;5.55;100.00
39243;BME280;29823;47.404;8.566;2023-02-04T06:36:48;97945.91;;;5.56;100.00
39243;BME280;29823;47.404;8.566;2023-02-04T06:39:16;97961.84;;;5.64;100.00
39243;BME280;29823;47.404;8.566;2023-02-04T06:41:45;97967.28;;;5.55;100.00
39243;BME280;29823;47.404;8.566;2023-02-04T06:44:13;97967.47;;;5.45;100.00
39243;BME280;29823;47.404;8.566;2023-02-04T06:46:41;97955.53;;;5.49;100.00
39243;BME280;29823;47.404;8.566;2023-02-04T06:49:09;97953.06;;;5.56;100.00
39243;BME280;29823;47.404;8.566;2023-02-04T06:51:36;97954.72;;;5.57;100.00
39243;BME280;29823;47.404;8.566;2023-02-04T06:54:04;97948.72;;;5.47;100.00
39243;BME280;29823;47.404;8.566;2023-02-04T06:56:32;97956.03;;;5.53;100.00
39243;BME280;29823;47.404;8.566;2023-02-04T06:59:01;97958.19;;;5.49;100.00
39243;BME280;29823;47.404;8.566;2023-02-04T07:01:29;97969.31;;;5.61;100.00
39243;BME280;29823;47.404;8.566;2023-02-04T07:03:57;97964.81;;;5.61;100.00
39243;BME280;29823;47.404;8.566;2023-02-04T07:06:25;97958.19;;;5.57;100.00
39243;BME280;29823;47.404;8.566;2023-02-04T07:08:53;97954.22;;;5.53;100.00
39243;BME280;29823;47.404;8.566;2023-02-04T07:11:20;97952.88;;;5.65;100.00
39243;BME280;29823;47.404;8.566;2023-02-04T07:13:48;97964.81;;;5.61;100.00
39243;BME280;29823;47.404;8.566;2023-02-04T07:16:17;97961.34;;;5.53;100.00
39243;BME280;29823;47.404;8.566;2023-02-04T07:18:45;97977.75;;;5.56;100.00
39243;BME280;29823;47.404;8.566;2023-02-04T07:21:13;97981.75;;;5.52;100.00
39243;BME280;29823;47.404;8.566;2023-02-04T07:23:41;97979.75;;;5.62;100.00
39243;BME280;29823;47.404;8.566;2023-02-04T07:26:09;97986.38;;;5.66;100.00
39243;BME280;29823;47.404;8.566;2023-02-04T07:28:37;97993.66;;;5.56;100.00
39243;BME280;29823;47.404;8.566;2023-02-04T07:31:06;97996.31;;;5.56;100.00
39243;BME280;29823;47.404;8.566;2023-02-04T07:33:35;97990.69;;;5.59;100.00
39243;BME280;29823;47.404;8.566;2023-02-04T07:36:03;97995.31;;;5.57;100.00
39243;BME280;29823;47.404;8.566;2023-02-04T07:38:31;97988.03;;;5.51;100.00
39243;BME280;29823;47.404;8.566;2023-02-04T07:40:59;97993.69;;;5.64;100.00
39243;BME280;29823;47.404;8.566;2023-02-04T07:43:28;97990.00;;;5.57;100.00
39243;BME280;29823;47.404;8.566;2023-02-04T07:45:55;97995.69;;;5.70;100.00
39243;BME280;29823;47.404;8.566;2023-02-04T07:48:23;98002.34;;;6.14;100.00
39243;BME280;29823;47.404;8.566;2023-02-04T07:50:53;97984.09;;;6.03;100.00
39243;BME280;29823;47.404;8.566;2023-02-04T07:53:20;98001.00;;;5.94;100.00
39243;BME280;29823;47.404;8.566;2023-02-04T07:55:50;97998.84;;;5.98;100.00
39243;BME280;29823;47.404;8.566;2023-02-04T07:58:18;97997.38;;;6.03;100.00
39243;BME280;29823;47.404;8.566;2023-02-04T08:00:46;97993.03;;;6.10;100.00
39243;BME280;29823;47.404;8.566;2023-02-04T08:03:14;97995.72;;;6.02;100.00
39243;BME280;29823;47.404;8.566;2023-02-04T08:05:42;97991.88;;;5.97;100.00
39243;BME280;29823;47.404;8.566;2023-02-04T08:08:11;97996.72;;;5.93;100.00
39243;BME280;29823;47.404;8.566;2023-02-04T08:10:39;97990.06;;;5.97;100.00
39243;BME280;29823;47.404;8.566;2023-02-04T08:13:07;98003.00;;;6.08;100.00
39243;BME280;29823;47.404;8.566;2023-02-04T08:15:34;97994.72;;;6.03;100.00
39243;BME280;29823;47.404;8.566;2023-02-04T08:18:03;98000.69;;;6.13;100.00
39243;BME280;29823;47.404;8.566;2023-02-04T08:20:31;98000.66;;;6.21;100.00
39243;BME280;29823;47.404;8.566;2023-02-04T08:22:59;97993.03;;;6.10;100.00
39243;BME280;29823;47.404;8.566;2023-02-04T08:25:29;97992.03;;;6.19;100.00
39243;BME280;29823;47.404;8.566;2023-02-04T08:27:56;98021.22;;;6.27;100.00
39243;BME280;29823;47.404;8.566;2023-02-04T08:30:24;98002.66;;;6.19;100.00
39243;BME280;29823;47.404;8.566;2023-02-04T08:32:52;98030.56;;;6.23;100.00
39243;BME280;29823;47.404;8.566;2023-02-04T08:35:20;98026.91;;;6.24;100.00
39243;BME280;29823;47.404;8.566;2023-02-04T08:37:48;98021.91;;;6.29;100.00
39243;BME280;29823;47.404;8.566;2023-02-04T08:40:16;98027.88;;;6.31;100.00
39243;BME280;29823;47.404;8.566;2023-02-04T08:42:47;98012.44;;;6.27;100.00
39243;BME280;29823;47.404;8.566;2023-02-04T08:45:15;98017.25;;;6.31;100.00
39243;BME280;29823;47.404;8.566;2023-02-04T08:47:43;98022.25;;;6.34;100.00
39243;BME280;29823;47.404;8.566;2023-02-04T08:50:11;98026.19;;;6.38;100.00
39243;BME280;29823;47.404;8.566;2023-02-04T08:52:39;98026.53;;;6.43;100.00
39243;BME280;29823;47.404;8.566;2023-02-04T08:55:07;98028.84;;;6.46;100.00
39243;BME280;29823;47.404;8.566;2023-02-04T08:57:35;98026.16;;;6.54;100.00
39243;BME280;29823;47.404;8.566;2023-02-04T09:00:05;98009.94;;;6.49;100.00
39243;BME280;29823;47.404;8.566;2023-02-04T09:02:33;98024.53;;;6.45;100.00
39243;BME280;29823;47.404;8.566;2023-02-04T09:05:01;98010.59;;;6.43;100.00
39243;BME280;29823;47.404;8.566;2023-02-04T09:07:29;98025.53;;;6.52;100.00
39243;BME280;29823;47.404;8.566;2023-02-04T09:09:57;98032.00;;;6.58;100.00
39243;BME280;29823;47.404;8.566;2023-02-04T09:12:25;98028.03;;;6.38;100.00
39243;BME280;29823;47.404;8.566;2023-02-04T09:14:53;98010.94;;;6.40;100.00
39243;BME280;29823;47.404;8.566;2023-02-04T09:17:23;98027.63;;;6.81;100.00
39243;BME280;29823;47.404;8.566;2023-02-04T09:19:51;98029.94;;;6.76;100.00
39243;BME280;29823;47.404;8.566;2023-02-04T09:22:18;98035.75;;;6.87;100.00
39243;BME280;29823;47.404;8.566;2023-02-04T09:24:46;98031.88;;;6.98;100.00
39243;BME280;29823;47.404;8.566;2023-02-04T09:27:14;98029.53;;;7.03;100.00
39243;BME280;29823;47.404;8.566;2023-02-04T09:29:42;98040.03;;;7.27;100.00
39243;BME280;29823;47.404;8.566;2023-02-04T09:32:10;98028.59;;;7.26;100.00
39243;BME280;29823;47.404;8.566;2023-02-04T09:34:39;98031.41;;;7.55;100.00
39243;BME280;29823;47.404;8.566;2023-02-04T09:37:07;98034.75;;;7.57;100.00
39243;BME280;29823;47.404;8.566;2023-02-04T09:39:34;98030.59;;;7.77;100.00
39243;BME280;29823;47.404;8.566;2023-02-04T09:42:02;98030.59;;;7.77;100.00
39243;BME280;29823;47.404;8.566;2023-02-04T09:44:30;98031.72;;;7.60;100.00
39243;BME280;29823;47.404;8.566;2023-02-04T09:46:59;98039.06;;;7.58;100.00
39243;BME280;29823;47.404;8.566;2023-02-04T09:49:27;98046.13;;;7.74;100.00
39243;BME280;29823;47.404;8.566;2023-02-04T09:51:57;98017.00;;;7.72;100.00
39243;BME280;29823;47.404;8.566;2023-02-04T09:54:26;98052.00;;;7.61;100.00
39243;BME280;29823;47.404;8.566;2023-02-04T09:56:53;98057.63;;;7.66;100.00
39243;BME280;29823;47.404;8.566;2023-02-04T09:59:25;98051.81;;;7.71;100.00
39243;BME280;29823;47.404;8.566;2023-02-04T10:01:56;98051.66;;;7.64;100.00
39243;BME280;29823;47.404;8.566;2023-02-04T10:04:26;98064.78;;;7.35;100.00
39243;BME280;29823;47.404;8.566;2023-02-04T10:06:57;98053.53;;;7.25;100.00
39243;BME280;29823;47.404;8.566;2023-02-04T10:09:25;98050.53;;;7.28;100.00
39243;BME280;29823;47.404;8.566;2023-02-04T10:11:53;98060.44;;;7.42;100.00
39243;BME280;29823;47.404;8.566;2023-02-04T10:14:22;98061.06;;;7.52;100.00
39243;BME280;29823;47.404;8.566;2023-02-04T10:16:53;98056.78;;;7.43;100.00
39243;BME280;29823;47.404;8.566;2023-02-04T10:19:26;98061.84;;;7.61;100.00
39243;BME280;29823;47.404;8.566;2023-02-04T10:21:57;98063.88;;;7.81;100.00
39243;BME280;29823;47.404;8.566;2023-02-04T10:24:26;98057.31;;;7.61;100.00
39243;BME280;29823;47.404;8.566;2023-02-04T10:27:06;98059.81;;;7.63;100.00
39243;BME280;29823;47.404;8.566;2023-02-04T10:29:35;98057.03;;;7.56;100.00
39243;BME280;29823;47.404;8.566;2023-02-04T10:32:03;98060.91;;;7.76;100.00
39243;BME280;29823;47.404;8.566;2023-02-04T10:34:33;98062.75;;;7.98;100.00
39243;BME280;29823;47.404;8.566;2023-02-04T10:37:17;98061.28;;;7.96;100.00
39243;BME280;29823;47.404;8.566;2023-02-04T10:39:45;98060.56;;;8.02;100.00
39243;BME280;29823;47.404;8.566;2023-02-04T10:42:20;98057.38;;;8.06;100.00
39243;BME280;29823;47.404;8.566;2023-02-04T10:44:49;98047.66;;;7.91;100.00
39243;BME280;29823;47.404;8.566;2023-02-04T10:47:19;98047.16;;;7.95;100.00
39243;BME280;29823;47.404;8.566;2023-02-04T10:49:54;98045.19;;;8.34;100.00
39243;BME280;29823;47.404;8.566;2023-02-04T10:52:31;98046.00;;;8.12;100.00
39243;BME280;29823;47.404;8.566;2023-02-04T10:55:01;98050.09;;;8.23;100.00
39243;BME280;29823;47.404;8.566;2023-02-04T10:57:30;98048.66;;;8.35;100.00
39243;BME280;29823;47.404;8.566;2023-02-04T11:00:02;98041.22;;;8.30;100.00
39243;BME280;29823;47.404;8.566;2023-02-04T11:02:40;98028.06;;;8.29;100.00
39243;BME280;29823;47.404;8.566;2023-02-04T11:05:14;98031.47;;;8.37;100.00
39243;BME280;29823;47.404;8.566;2023-02-04T11:07:44;98020.19;;;8.35;100.00
39243;BME280;29823;47.404;8.566;2023-02-04T11:10:14;98045.75;;;8.44;100.00
39243;BME280;29823;47.404;8.566;2023-02-04T11:12:44;98039.63;;;8.21;100.00
39243;BME280;29823;47.404;8.566;2023-02-04T11:15:44;98044.50;;;8.32;100.00
39243;BME280;29823;47.404;8.566;2023-02-04T11:18:28;98031.13;;;8.40;100.00
39243;BME280;29823;47.404;8.566;2023-02-04T11:20:58;98034.06;;;8.31;100.00
39243;BME280;29823;47.404;8.566;2023-02-04T11:23:33;98043.53;;;8.33;100.00
39243;BME280;29823;47.404;8.566;2023-02-04T11:26:04;98036.53;;;8.32;100.00
39243;BME280;29823;47.404;8.566;2023-02-04T11:28:49;98032.78;;;8.41;100.00
39243;BME280;29823;47.404;8.566;2023-02-04T11:31:42;98031.91;;;8.26;100.00
39243;BME280;29823;47.404;8.566;2023-02-04T11:34:30;98045.28;;;8.18;100.00
39243;BME280;29823;47.404;8.566;2023-02-04T11:37:13;98049.59;;;7.97;100.00
39243;BME280;29823;47.404;8.566;2023-02-04T11:39:44;98050.63;;;7.96;100.00
39243;BME280;29823;47.404;8.566;2023-02-04T11:42:19;98030.88;;;7.90;100.00
39243;BME280;29823;47.404;8.566;2023-02-04T11:44:49;98050.56;;;7.81;100.00
39243;BME280;29823;47.404;8.566;2023-02-04T11:47:18;98054.41;;;7.48;100.00
39243;BME280;29823;47.404;8.566;2023-02-04T11:49:52;98059.19;;;7.22;100.00
39243;BME280;29823;47.404;8.566;2023-02-04T11:52:21;98064.84;;;7.27;100.00
39243;BME280;29823;47.404;8.566;2023-02-04T11:54:54;98062.22;;;7.11;100.00
39243;BME280;29823;47.404;8.566;2023-02-04T11:57:22;98057.00;;;6.87;100.00
39243;BME280;29823;47.404;8.566;2023-02-04T11:59:50;98055.28;;;7.02;100.00
39243;BME280;29823;47.404;8.566;2023-02-04T12:02:20;98051.13;;;7.00;100.00
39243;BME280;29823;47.404;8.566;2023-02-04T12:04:54;98055.47;;;6.93;100.00
39243;BME280;29823;47.404;8.566;2023-02-04T12:07:26;98059.78;;;7.02;100.00
39243;BME280;29823;47.404;8.566;2023-02-04T12:09:56;98058.34;;;6.83;100.00
39243;BME280;29823;47.404;8.566;2023-02-04T12:12:27;98058.78;;;6.95;100.00
39243;BME280;29823;47.404;8.566;2023-02-04T12:14:56;98067.94;;;7.00;100.00
39243;BME280;29823;47.404;8.566;2023-02-04T12:17:24;98063.78;;;6.98;100.00
39243;BME280;29823;47.404;8.566;2023-02-04T12:19:52;98063.47;;;6.93;100.00
39243;BME280;29823;47.404;8.566;2023-02-04T12:22:20;98067.28;;;6.90;100.00
39243;BME280;29823;47.404;8.566;2023-02-04T12:24:48;98074.22;;;7.07;100.00
39243;BME280;29823;47.404;8.566;2023-02-04T12:27:19;98069.41;;;7.03;100.00
39243;BME280;29823;47.404;8.566;2023-02-04T12:29:47;98067.06;;;7.08;100.00
39243;BME280;29823;47.404;8.566;2023-02-04T12:32:15;98067.53;;;7.19;100.00
39243;BME280;29823;47.404;8.566;2023-02-04T12:34:43;98064.56;;;7.14;100.00
39243;BME280;29823;47.404;8.566;2023-02-04T12:37:11;98070.16;;;7.27;100.00
39243;BME280;29823;47.404;8.566;2023-02-04T12:39:39;98070.19;;;7.19;100.00
39243;BME280;29823;47.404;8.566;2023-02-04T12:42:07;98070.47;;;7.24;100.00
39243;BME280;29823;47.404;8.566;2023-02-04T12:44:36;98066.47;;;7.36;100.00
39243;BME280;29823;47.404;8.566;2023-02-04T12:47:04;98078.63;;;7.31;100.00
39243;BME280;29823;47.404;8.566;2023-02-04T12:49:32;98068.75;;;7.39;100.00
39243;BME280;29823;47.404;8.566;2023-02-04T12:51:59;98072.03;;;7.49;100.00
39243;BME280;29823;47.404;8.566;2023-02-04T12:54:28;98056.56;;;7.53;100.00
39243;BME280;29823;47.404;8.566;2023-02-04T12:56:56;98071.78;;;7.67;100.00
39243;BME280;29823;47.404;8.566;2023-02-04T12:59:24;98068.34;;;7.81;100.00
39243;BME280;29823;47.404;8.566;2023-02-04T13:01:54;98067.19;;;8.06;100.00
39243;BME280;29823;47.404;8.566;2023-02-04T13:04:22;98067.66;;;8.09;100.00
39243;BME280;29823;47.404;8.566;2023-02-04T13:06:50;98056.09;;;8.25;100.00
39243;BME280;29823;47.404;8.566;2023-02-04T13:09:17;98060.59;;;8.24;100.00